Weather observations for the past three days for
Menominee - Marinette Twin County Airport
| Date | Time (cdt) | Wind (kph) | Vis. (km) | Weather | Sky Cond. | Temperature (ºC) | Relative Humidity | Wind Chill (°C) | Heat Index (°C) | Pressure | Precipitation (cm) | ||||||
|---|---|---|---|---|---|---|---|---|---|---|---|---|---|---|---|---|---|
| Air | Dwpt | 6 hour | altimeter (cm) | sea level (mb) | 1 hr | 3 hr | 6 hr | ||||||||||
| Max. | Min. | ||||||||||||||||
| 08 | 06:57 | W 11 | 16.09 | Fair | CLR | 5.6 | -2.2 | 5.6 | 2.2 | 58% | 3 | 75.67 | 1009.1 | ||||
| 08 | 05:57 | W 9 | 16.09 | Fair | CLR | 3.9 | -1.7 | 67% | 2 | 75.67 | 1009.0 | ||||||
| 08 | 04:57 | SW 9 | 16.09 | Mostly Cloudy | BKN095 | 4.4 | -0.6 | 70% | 2 | 75.67 | 1009.0 | ||||||
| 08 | 03:57 | SW 7 | 16.09 | Overcast | OVC090 | 5 | 0 | 70% | 4 | 75.69 | 1009.4 | ||||||
| 08 | 02:57 | SW 9 | 16.09 | Overcast | OVC095 | 5 | 0 | 70% | 3 | 75.72 | 1009.7 | ||||||
| 08 | 01:57 | Calm | 16.09 | Overcast | OVC095 | 2.8 | 2.2 | 96% | 75.74 | 1010.3 | |||||||
| 08 | 00:57 | N 6 | 16.09 | Overcast | OVC080 | 4.4 | 2.2 | 8.9 | 3.3 | 86% | 75.79 | 1010.9 | |||||
| 07 | 23:57 | SW 7 | 16.09 | Overcast | BKN090 OVC100 | 3.3 | 1.7 | 89% | 2 | 75.82 | 1011.0 | ||||||
| 07 | 22:57 | Calm | 16.09 | Overcast | BKN095 OVC110 | 5 | 2.2 | 82% | 75.82 | 1011.2 | |||||||
| 07 | 21:57 | SW 6 | 16.09 | Mostly Cloudy | BKN080 BKN110 | 4.4 | 1.7 | 83% | 75.82 | 1011.1 | |||||||
| 07 | 20:57 | S 7 | 16.09 | Fair | CLR | 5.6 | 1.1 | 73% | 4 | 75.79 | 1010.9 | ||||||
| 07 | 19:57 | S 15 | 16.09 | A Few Clouds | FEW100 | 7.2 | 1.1 | 66% | 5 | 75.74 | 1010.3 | ||||||
| 07 | 18:57 | S 13 | 16.09 | Overcast | SCT080 OVC095 | 8.3 | 0 | 10.6 | 8.3 | 56% | 6 | 75.74 | 1010.2 | ||||
| 07 | 17:57 | Vrbl 7 | 16.09 | Overcast | SCT075 OVC090 | 10 | -5.6 | 33% | 9 | 75.74 | 1010.2 | ||||||
| 07 | 16:57 | NW 11 | 16.09 | Overcast | BKN075 OVC090 | 9.4 | -5.6 | 35% | 8 | 75.74 | 1010.4 | ||||||
| 07 | 15:57 | Vrbl 9 | 16.09 | Overcast | OVC090 | 10 | -4.4 | 36% | 9 | 75.77 | 1010.5 | ||||||
| 07 | 14:57 | Vrbl 11 | 16.09 | Overcast | BKN060 BKN075 OVC085 | 9.4 | -4.4 | 38% | 8 | 75.82 | 1011.0 | ||||||
| 07 | 13:57 | W 13 | 16.09 | Overcast | BKN075 OVC090 | 8.9 | -3.9 | 41% | 7 | 75.82 | 1011.3 | ||||||
| 07 | 12:57 | W 11 | 16.09 | Overcast | FEW055 OVC080 | 8.3 | -3.9 | 8.3 | 2.8 | 42% | 7 | 75.84 | 1011.6 | ||||
| 07 | 11:57 | W 13 | 16.09 | Overcast | FEW050 OVC080 | 8.3 | -3.9 | 42% | 6 | 75.9 | 1012.2 | ||||||
| 07 | 10:57 | SW 19 | 16.09 | Overcast | BKN050 BKN070 OVC085 | 8.3 | -3.3 | 44% | 6 | 75.92 | 1012.6 | ||||||
| 07 | 09:57 | W 11 | 16.09 | Overcast | OVC080 | 7.2 | -3.3 | 48% | 5 | 75.97 | 1013.1 | ||||||
| 07 | 08:57 | Vrbl 7 | 16.09 | Overcast | OVC070 | 5.6 | -2.2 | 58% | 4 | 76 | 1013.6 | ||||||
| 07 | 07:57 | Vrbl 6 | 16.09 | Overcast | OVC070 | 4.4 | -2.2 | 63% | 76 | 1013.6 | |||||||
| 07 | 06:57 | W 6 | 16.09 | Overcast | OVC070 | 2.8 | -2.2 | 4.4 | 0.6 | 70% | 75.97 | 1013.3 | |||||
| 07 | 05:57 | W 6 | 16.09 | Overcast | OVC070 | 2.2 | -2.8 | 70% | 75.95 | 1012.9 | |||||||
| 07 | 04:57 | Vrbl 6 | 16.09 | A Few Clouds | FEW075 | 1.7 | -3.3 | 70% | 75.95 | 1012.9 | |||||||
| 07 | 03:57 | W 6 | 16.09 | Fair | CLR | 1.1 | -2.2 | 79% | 75.95 | 1013.1 | |||||||
| 07 | 02:57 | Calm | 16.09 | Overcast | OVC075 | 2.8 | -2.2 | 70% | 75.97 | 1013.0 | |||||||
| 07 | 01:57 | Calm | 16.09 | Overcast | OVC080 | 3.3 | -3.3 | 62% | 76 | 1013.7 | |||||||
| 07 | 00:57 | Calm | 16.09 | Overcast | OVC080 | 4.4 | -2.8 | 6.7 | 3.9 | 60% | 76.05 | 1014.2 | |||||
| 06 | 23:57 | Calm | 16.09 | Overcast | OVC070 | 4.4 | -1.1 | 68% | 76.05 | 1014.3 | |||||||
| 06 | 22:57 | Calm | 16.09 | Overcast | OVC065 | 5 | -0.6 | 67% | 76.05 | 1014.3 | |||||||
| 06 | 21:57 | NW 6 | 16.09 | Overcast | OVC060 | 5.6 | -1.1 | 62% | 76.07 | 1014.7 | |||||||
| 06 | 20:57 | S 7 | 16.09 | Overcast | OVC065 | 5.6 | -1.7 | 60% | 4 | 76.05 | 1014.3 | ||||||
| 06 | 19:57 | SE 11 | 16.09 | Overcast | OVC070 | 6.1 | -1.7 | 58% | 4 | 76 | 1013.7 | ||||||
| 06 | 18:57 | SE 9 | 16.09 | Overcast | BKN070 OVC085 | 6.7 | -0.6 | 8.9 | 6.7 | 60% | 5 | 75.97 | 1013.2 | ||||
| 06 | 17:57 | E 17 | 16.09 | Overcast | OVC070 | 7.2 | -0.6 | 58% | 5 | 75.95 | 1013.1 | ||||||
| 06 | 16:57 | E 15 | 16.09 | Overcast | OVC065 | 7.8 | -1.7 | 51% | 6 | 75.95 | 1012.8 | ||||||
| 06 | 15:57 | NW 17 | 16.09 | Overcast | OVC065 | 8.3 | -5 | 39% | 6 | 75.92 | 1012.5 | ||||||
| 06 | 14:57 | NW 11 | 16.09 | Overcast | OVC060 | 8.9 | -5 | 37% | 7 | 75.95 | 1012.7 | ||||||
| 06 | 13:57 | Vrbl 7 | 16.09 | Overcast | OVC055 | 7.8 | -4.4 | 42% | 7 | 75.95 | 1012.9 | ||||||
| 06 | 12:57 | W 13 | 16.09 | Overcast | OVC055 | 7.8 | -3.9 | 8.3 | 3.3 | 44% | 6 | 75.97 | 1013.3 | ||||
| 06 | 11:57 | Vrbl 7 | 16.09 | Overcast | OVC055 | 7.2 | -4.4 | 44% | 6 | 76.02 | 1013.8 | ||||||
| 06 | 10:57 | W 9 | 16.09 | Mostly Cloudy | BKN065 | 7.2 | -4.4 | 44% | 6 | 76.02 | 1014.0 | ||||||
| 06 | 09:57 | W 9 | 16.09 | Overcast | OVC060 | 5.6 | -4.4 | 49% | 4 | 76.02 | 1014.0 | ||||||
| 06 | 08:57 | NW 9 | 16.09 | Overcast | BKN055 OVC070 | 5 | -4.4 | 51% | 3 | 76.02 | 1013.7 | ||||||
| 06 | 07:57 | N 9 | 16.09 | Overcast | OVC065 | 3.9 | -2.8 | 62% | 2 | 76.02 | 1013.7 | ||||||
| 06 | 06:57 | NW 6 | 16.09 | Mostly Cloudy | BKN070 | 3.3 | 0 | 3.3 | 1.7 | 79% | 75.97 | 1013.3 | |||||
| 06 | 05:57 | Calm | 16.09 | Overcast | OVC070 | 2.8 | 0 | 82% | 75.92 | 1012.4 | |||||||
| 06 | 04:57 | S 7 | 16.09 | Overcast | OVC070 | 3.3 | -0.6 | 76% | 2 | 75.87 | 1011.9 | ||||||
| 06 | 03:57 | S 6 | 16.09 | Overcast | OVC065 | 3.3 | 0 | 79% | 75.9 | 1012.2 | |||||||
| 06 | 02:57 | Calm | 16.09 | Overcast | OVC065 | 2.8 | 0 | 82% | 75.9 | 1012.0 | |||||||
| 06 | 01:57 | Calm | 16.09 | Overcast | BKN070 OVC080 | 2.2 | 0 | 86% | 75.9 | 1012.0 | |||||||
| 06 | 00:57 | Calm | 16.09 | A Few Clouds | FEW070 | 2.2 | -0.6 | 9.4 | 1.7 | 82% | 75.9 | 1012.2 | |||||
| 05 | 23:57 | E 11 | 16.09 | Mostly Cloudy | BKN070 | 3.9 | 0 | 76% | 1 | 75.87 | 1011.8 | ||||||
| 05 | 22:57 | Calm | 16.09 | Fair | CLR | 2.8 | -3.9 | 62% | 75.82 | 1011.1 | |||||||
| 05 | 21:57 | Calm | 16.09 | A Few Clouds | FEW075 | 6.1 | -6.1 | 42% | 75.82 | 1010.9 | |||||||
| 05 | 20:57 | N 15 | 16.09 | Overcast | OVC070 | 7.8 | -6.7 | 35% | 6 | 75.77 | 1010.2 | ||||||
| 05 | 19:57 | N 15 | 16.09 | Overcast | OVC070 | 8.3 | -6.1 | 36% | 6 | 75.72 | 1009.4 | ||||||
| 05 | 18:57 | NW 13 | 16.09 | Overcast | OVC070 | 9.4 | -6.1 | 13.3 | 9.4 | 33% | 8 | 75.67 | 1009.0 | ||||
| 05 | 17:57 | W 15 G 28 | 16.09 | Mostly Cloudy | BKN070 | 10 | -6.7 | 30% | 8 | 75.62 | 1008.2 | ||||||
| 05 | 16:57 | NW 17 G 30 | 16.09 | Overcast | OVC075 | 10.6 | -6.1 | 31% | 75.57 | 1007.7 | |||||||
| 05 | 15:57 | NW 11 G 30 | 16.09 | Overcast | OVC075 | 11.1 | -6.1 | 30% | 75.54 | 1007.3 | |||||||
| 05 | 14:57 | NW 15 G 33 | 16.09 | Mostly Cloudy | BKN075 | 11.1 | -6.1 | 30% | 75.51 | 1006.9 | |||||||
| 05 | 13:57 | W 17 G 33 | 16.09 | Mostly Cloudy | BKN075 | 12.2 | -6.1 | 28% | 75.49 | 1006.5 | |||||||
| 05 | 12:57 | W 13 G 30 | 16.09 | Mostly Cloudy | BKN070 | 11.7 | -5 | 11.7 | 5.6 | 31% | 75.46 | 1006.2 | |||||
| 05 | 11:57 | Vrbl 9 G 26 | 16.09 | Mostly Cloudy | BKN065 | 10.6 | -5 | 33% | 75.44 | 1006.0 | |||||||
| 05 | 10:57 | W 20 G 41 | 16.09 | Mostly Cloudy | BKN060 | 10 | -5 | 35% | 8 | 75.46 | 1006.0 | ||||||
| 05 | 09:57 | Vrbl 11 G 28 | 16.09 | Partly Cloudy | SCT055 | 9.4 | -3.9 | 39% | 8 | 75.46 | 1006.2 | ||||||
| 05 | 08:57 | W 17 G 26 | 16.09 | Fair | CLR | 8.3 | -3.9 | 42% | 6 | 75.46 | 1006.3 | ||||||
| 05 | 07:57 | NW 11 | 16.09 | Fair | CLR | 7.8 | -3.3 | 46% | 6 | 75.44 | 1005.6 | ||||||
| Date | Time (cdt) | Wind (kph) | Vis. (km) | Weather | Sky Cond. | Air | Dwpt | Max. | Min. | Relative Humidity | Wind Chill (°C) | Heat Index (°C) | altimeter (cm) | sea level (mb) | 1 hr | 3 hr | 6 hr |
| 6 hour | |||||||||||||||||
| Temperature (ºC) | Pressure | Precipitation (cm) | |||||||||||||||